sensor_id;sensor_type;location;lat;lon;timestamp;P1;durP1;ratioP1;P2;durP2;ratioP2
56427;SDS011;42331;53.578;9.760;2023-03-01T00:00:39;4.90;;;2.50;;
56427;SDS011;42331;53.578;9.760;2023-03-01T00:03:10;4.60;;;2.40;;
56427;SDS011;42331;53.578;9.760;2023-03-01T00:05:44;5.73;;;2.40;;
56427;SDS011;42331;53.578;9.760;2023-03-01T00:08:16;5.22;;;2.67;;
56427;SDS011;42331;53.578;9.760;2023-03-01T00:10:46;5.30;;;2.53;;
56427;SDS011;42331;53.578;9.760;2023-03-01T00:13:17;6.33;;;2.63;;
56427;SDS011;42331;53.578;9.760;2023-03-01T00:15:48;4.83;;;2.60;;
56427;SDS011;42331;53.578;9.760;2023-03-01T00:18:19;4.20;;;2.60;;
56427;SDS011;42331;53.578;9.760;2023-03-01T00:20:53;4.57;;;1.90;;
56427;SDS011;42331;53.578;9.760;2023-03-01T00:23:25;5.00;;;2.72;;
56427;SDS011;42331;53.578;9.760;2023-03-01T00:25:56;4.13;;;2.25;;
56427;SDS011;42331;53.578;9.760;2023-03-01T00:28:27;4.15;;;2.40;;
56427;SDS011;42331;53.578;9.760;2023-03-01T00:31:05;7.17;;;2.60;;
56427;SDS011;42331;53.578;9.760;2023-03-01T00:33:37;5.55;;;2.60;;
56427;SDS011;42331;53.578;9.760;2023-03-01T00:36:09;5.97;;;2.53;;
56427;SDS011;42331;53.578;9.760;2023-03-01T00:41:16;5.68;;;2.10;;
56427;SDS011;42331;53.578;9.760;2023-03-01T00:43:48;3.88;;;2.17;;
56427;SDS011;42331;53.578;9.760;2023-03-01T00:46:21;5.63;;;2.75;;
56427;SDS011;42331;53.578;9.760;2023-03-01T00:48:53;4.55;;;2.65;;
56427;SDS011;42331;53.578;9.760;2023-03-01T00:51:25;5.03;;;2.60;;
56427;SDS011;42331;53.578;9.760;2023-03-01T00:53:58;7.72;;;2.53;;
56427;SDS011;42331;53.578;9.760;2023-03-01T00:56:30;4.45;;;2.33;;
56427;SDS011;42331;53.578;9.760;2023-03-01T00:59:02;4.53;;;2.63;;
56427;SDS011;42331;53.578;9.760;2023-03-01T01:01:32;4.37;;;1.80;;
56427;SDS011;42331;53.578;9.760;2023-03-01T01:04:07;5.37;;;2.47;;
56427;SDS011;42331;53.578;9.760;2023-03-01T01:06:44;4.70;;;2.28;;
56427;SDS011;42331;53.578;9.760;2023-03-01T01:09:16;5.28;;;2.70;;
56427;SDS011;42331;53.578;9.760;2023-03-01T01:11:49;5.55;;;2.42;;
56427;SDS011;42331;53.578;9.760;2023-03-01T01:14:20;3.85;;;2.13;;
56427;SDS011;42331;53.578;9.760;2023-03-01T01:16:52;4.83;;;2.40;;
56427;SDS011;42331;53.578;9.760;2023-03-01T01:19:23;4.70;;;2.20;;
56427;SDS011;42331;53.578;9.760;2023-03-01T01:21:55;6.38;;;2.67;;
56427;SDS011;42331;53.578;9.760;2023-03-01T01:26:56;6.57;;;2.65;;
56427;SDS011;42331;53.578;9.760;2023-03-01T01:29:27;4.67;;;2.67;;
56427;SDS011;42331;53.578;9.760;2023-03-01T01:31:58;5.53;;;2.53;;
56427;SDS011;42331;53.578;9.760;2023-03-01T01:34:29;5.43;;;2.97;;
56427;SDS011;42331;53.578;9.760;2023-03-01T01:36:59;4.63;;;2.83;;
56427;SDS011;42331;53.578;9.760;2023-03-01T01:39:33;5.28;;;2.80;;
56427;SDS011;42331;53.578;9.760;2023-03-01T01:42:04;5.63;;;2.80;;
56427;SDS011;42331;53.578;9.760;2023-03-01T01:44:35;4.60;;;2.80;;
56427;SDS011;42331;53.578;9.760;2023-03-01T01:47:07;5.13;;;2.87;;
56427;SDS011;42331;53.578;9.760;2023-03-01T01:52:22;6.28;;;3.22;;
56427;SDS011;42331;53.578;9.760;2023-03-01T01:55:04;6.65;;;2.92;;
56427;SDS011;42331;53.578;9.760;2023-03-01T01:57:39;5.63;;;3.05;;
56427;SDS011;42331;53.578;9.760;2023-03-01T02:00:17;6.22;;;3.22;;
56427;SDS011;42331;53.578;9.760;2023-03-01T02:03:02;9.25;;;3.28;;
56427;SDS011;42331;53.578;9.760;2023-03-01T02:05:38;5.53;;;3.10;;
56427;SDS011;42331;53.578;9.760;2023-03-01T02:08:11;7.32;;;3.65;;
56427;SDS011;42331;53.578;9.760;2023-03-01T02:10:43;7.13;;;3.33;;
56427;SDS011;42331;53.578;9.760;2023-03-01T02:13:16;4.65;;;3.40;;
56427;SDS011;42331;53.578;9.760;2023-03-01T02:15:47;10.63;;;3.50;;
56427;SDS011;42331;53.578;9.760;2023-03-01T02:18:18;5.83;;;3.37;;
56427;SDS011;42331;53.578;9.760;2023-03-01T02:23:25;7.80;;;3.80;;
56427;SDS011;42331;53.578;9.760;2023-03-01T02:26:11;7.75;;;4.15;;
56427;SDS011;42331;53.578;9.760;2023-03-01T02:28:50;8.60;;;4.30;;
56427;SDS011;42331;53.578;9.760;2023-03-01T02:31:21;8.93;;;3.43;;
56427;SDS011;42331;53.578;9.760;2023-03-01T02:34:15;9.23;;;3.70;;
56427;SDS011;42331;53.578;9.760;2023-03-01T02:36:49;9.85;;;4.20;;
56427;SDS011;42331;53.578;9.760;2023-03-01T02:39:39;8.23;;;4.32;;
56427;SDS011;42331;53.578;9.760;2023-03-01T02:42:14;6.03;;;3.78;;
56427;SDS011;42331;53.578;9.760;2023-03-01T02:44:49;6.20;;;3.85;;
56427;SDS011;42331;53.578;9.760;2023-03-01T02:47:20;6.70;;;3.72;;
56427;SDS011;42331;53.578;9.760;2023-03-01T02:49:51;6.80;;;3.40;;
56427;SDS011;42331;53.578;9.760;2023-03-01T02:52:42;7.03;;;3.60;;
56427;SDS011;42331;53.578;9.760;2023-03-01T02:55:17;7.30;;;3.97;;
56427;SDS011;42331;53.578;9.760;2023-03-01T02:57:48;7.95;;;3.97;;
56427;SDS011;42331;53.578;9.760;2023-03-01T03:00:29;8.25;;;4.05;;
56427;SDS011;42331;53.578;9.760;2023-03-01T03:03:04;7.63;;;3.90;;
56427;SDS011;42331;53.578;9.760;2023-03-01T03:05:35;6.63;;;3.70;;
56427;SDS011;42331;53.578;9.760;2023-03-01T03:08:06;8.07;;;3.33;;
56427;SDS011;42331;53.578;9.760;2023-03-01T03:10:38;6.13;;;3.80;;
56427;SDS011;42331;53.578;9.760;2023-03-01T03:13:13;6.53;;;3.35;;
56427;SDS011;42331;53.578;9.760;2023-03-01T03:15:44;7.57;;;4.18;;
56427;SDS011;42331;53.578;9.760;2023-03-01T03:18:15;6.00;;;3.40;;
56427;SDS011;42331;53.578;9.760;2023-03-01T03:20:47;7.53;;;4.35;;
56427;SDS011;42331;53.578;9.760;2023-03-01T03:23:22;8.70;;;4.88;;
56427;SDS011;42331;53.578;9.760;2023-03-01T03:25:53;8.85;;;4.28;;
56427;SDS011;42331;53.578;9.760;2023-03-01T03:28:26;7.53;;;3.85;;
56427;SDS011;42331;53.578;9.760;2023-03-01T03:30:57;7.17;;;3.93;;
56427;SDS011;42331;53.578;9.760;2023-03-01T03:33:29;7.73;;;4.07;;
56427;SDS011;42331;53.578;9.760;2023-03-01T03:36:05;7.88;;;4.20;;
56427;SDS011;42331;53.578;9.760;2023-03-01T03:38:36;6.88;;;3.50;;
56427;SDS011;42331;53.578;9.760;2023-03-01T03:41:08;7.65;;;3.85;;
56427;SDS011;42331;53.578;9.760;2023-03-01T03:43:39;8.67;;;3.30;;
56427;SDS011;42331;53.578;9.760;2023-03-01T03:46:12;7.28;;;3.75;;
56427;SDS011;42331;53.578;9.760;2023-03-01T03:48:44;7.67;;;3.83;;
56427;SDS011;42331;53.578;9.760;2023-03-01T03:51:16;7.57;;;3.65;;
56427;SDS011;42331;53.578;9.760;2023-03-01T03:53:47;6.28;;;3.45;;
56427;SDS011;42331;53.578;9.760;2023-03-01T03:56:18;9.00;;;4.03;;
56427;SDS011;42331;53.578;9.760;2023-03-01T03:58:49;7.23;;;3.77;;
56427;SDS011;42331;53.578;9.760;2023-03-01T04:01:20;9.47;;;4.20;;
56427;SDS011;42331;53.578;9.760;2023-03-01T04:03:50;8.67;;;3.57;;
56427;SDS011;42331;53.578;9.760;2023-03-01T04:06:24;6.35;;;3.42;;
56427;SDS011;42331;53.578;9.760;2023-03-01T04:08:55;5.50;;;3.43;;
56427;SDS011;42331;53.578;9.760;2023-03-01T04:11:29;5.30;;;3.40;;
56427;SDS011;42331;53.578;9.760;2023-03-01T04:14:00;6.13;;;3.40;;
56427;SDS011;42331;53.578;9.760;2023-03-01T04:16:30;6.77;;;3.33;;
56427;SDS011;42331;53.578;9.760;2023-03-01T04:19:01;4.67;;;2.70;;
56427;SDS011;42331;53.578;9.760;2023-03-01T04:21:32;6.65;;;3.65;;
56427;SDS011;42331;53.578;9.760;2023-03-01T04:24:03;6.57;;;3.73;;
56427;SDS011;42331;53.578;9.760;2023-03-01T04:26:34;6.63;;;3.63;;
56427;SDS011;42331;53.578;9.760;2023-03-01T04:29:05;5.93;;;3.33;;
56427;SDS011;42331;53.578;9.760;2023-03-01T04:31:36;7.30;;;4.17;;
56427;SDS011;42331;53.578;9.760;2023-03-01T04:34:06;6.53;;;4.10;;
56427;SDS011;42331;53.578;9.760;2023-03-01T04:36:37;6.93;;;3.90;;
56427;SDS011;42331;53.578;9.760;2023-03-01T04:39:09;8.35;;;4.30;;
56427;SDS011;42331;53.578;9.760;2023-03-01T04:41:43;7.32;;;3.50;;
56427;SDS011;42331;53.578;9.760;2023-03-01T04:44:14;7.83;;;3.93;;
56427;SDS011;42331;53.578;9.760;2023-03-01T04:46:44;8.10;;;3.90;;
56427;SDS011;42331;53.578;9.760;2023-03-01T04:49:21;10.20;;;3.87;;
56427;SDS011;42331;53.578;9.760;2023-03-01T04:51:52;8.70;;;4.40;;
56427;SDS011;42331;53.578;9.760;2023-03-01T04:54:22;7.40;;;3.83;;
56427;SDS011;42331;53.578;9.760;2023-03-01T04:59:50;6.80;;;3.83;;
56427;SDS011;42331;53.578;9.760;2023-03-01T05:02:20;6.07;;;4.13;;
56427;SDS011;42331;53.578;9.760;2023-03-01T05:05:00;7.75;;;4.60;;
56427;SDS011;42331;53.578;9.760;2023-03-01T05:07:30;6.73;;;3.47;;
56427;SDS011;42331;53.578;9.760;2023-03-01T05:10:01;7.27;;;4.27;;
56427;SDS011;42331;53.578;9.760;2023-03-01T05:12:32;7.33;;;2.83;;
56427;SDS011;42331;53.578;9.760;2023-03-01T05:15:03;9.13;;;3.83;;
56427;SDS011;42331;53.578;9.760;2023-03-01T05:17:37;7.15;;;4.00;;
56427;SDS011;42331;53.578;9.760;2023-03-01T05:20:10;7.90;;;4.13;;
56427;SDS011;42331;53.578;9.760;2023-03-01T05:22:57;7.43;;;4.55;;
56427;SDS011;42331;53.578;9.760;2023-03-01T05:25:31;10.13;;;4.88;;
56427;SDS011;42331;53.578;9.760;2023-03-01T05:28:13;6.97;;;4.45;;
56427;SDS011;42331;53.578;9.760;2023-03-01T05:30:44;9.93;;;4.50;;
56427;SDS011;42331;53.578;9.760;2023-03-01T05:33:15;10.52;;;4.95;;
56427;SDS011;42331;53.578;9.760;2023-03-01T05:35:46;7.40;;;4.70;;
56427;SDS011;42331;53.578;9.760;2023-03-01T05:38:21;8.65;;;4.30;;
56427;SDS011;42331;53.578;9.760;2023-03-01T05:41:12;7.35;;;4.30;;
56427;SDS011;42331;53.578;9.760;2023-03-01T05:43:45;8.38;;;4.32;;
56427;SDS011;42331;53.578;9.760;2023-03-01T05:46:18;9.40;;;4.20;;
56427;SDS011;42331;53.578;9.760;2023-03-01T05:48:48;7.93;;;4.45;;
56427;SDS011;42331;53.578;9.760;2023-03-01T05:51:19;10.73;;;4.90;;
56427;SDS011;42331;53.578;9.760;2023-03-01T05:53:51;8.82;;;4.95;;
56427;SDS011;42331;53.578;9.760;2023-03-01T05:56:22;14.03;;;5.70;;
56427;SDS011;42331;53.578;9.760;2023-03-01T05:58:52;9.47;;;4.70;;
56427;SDS011;42331;53.578;9.760;2023-03-01T06:01:23;7.80;;;4.70;;
56427;SDS011;42331;53.578;9.760;2023-03-01T06:03:54;8.73;;;3.87;;
56427;SDS011;42331;53.578;9.760;2023-03-01T06:06:25;10.10;;;4.65;;
56427;SDS011;42331;53.578;9.760;2023-03-01T06:08:56;11.23;;;5.37;;
56427;SDS011;42331;53.578;9.760;2023-03-01T06:11:29;7.57;;;4.27;;
56427;SDS011;42331;53.578;9.760;2023-03-01T06:14:00;10.10;;;4.45;;
56427;SDS011;42331;53.578;9.760;2023-03-01T06:16:32;7.77;;;4.20;;
56427;SDS011;42331;53.578;9.760;2023-03-01T06:19:03;5.33;;;3.13;;
56427;SDS011;42331;53.578;9.760;2023-03-01T06:21:33;13.70;;;4.70;;
56427;SDS011;42331;53.578;9.760;2023-03-01T06:24:11;9.80;;;5.00;;
56427;SDS011;42331;53.578;9.760;2023-03-01T06:26:42;12.30;;;4.80;;
56427;SDS011;42331;53.578;9.760;2023-03-01T06:29:13;8.10;;;5.10;;
56427;SDS011;42331;53.578;9.760;2023-03-01T06:31:44;10.00;;;5.30;;
56427;SDS011;42331;53.578;9.760;2023-03-01T06:34:15;11.88;;;5.65;;
56427;SDS011;42331;53.578;9.760;2023-03-01T06:36:46;12.50;;;5.93;;
56427;SDS011;42331;53.578;9.760;2023-03-01T06:39:17;10.50;;;6.43;;
56427;SDS011;42331;53.578;9.760;2023-03-01T06:41:48;13.80;;;6.27;;
56427;SDS011;42331;53.578;9.760;2023-03-01T06:44:19;10.87;;;5.87;;
56427;SDS011;42331;53.578;9.760;2023-03-01T06:46:49;10.00;;;5.17;;
56427;SDS011;42331;53.578;9.760;2023-03-01T06:49:20;12.07;;;6.65;;
56427;SDS011;42331;53.578;9.760;2023-03-01T06:51:57;14.97;;;7.30;;
56427;SDS011;42331;53.578;9.760;2023-03-01T06:54:28;17.33;;;7.88;;
56427;SDS011;42331;53.578;9.760;2023-03-01T06:56:58;17.17;;;8.03;;
56427;SDS011;42331;53.578;9.760;2023-03-01T06:59:29;13.00;;;6.50;;
56427;SDS011;42331;53.578;9.760;2023-03-01T07:02:00;18.63;;;9.40;;
56427;SDS011;42331;53.578;9.760;2023-03-01T07:04:31;18.58;;;8.45;;
56427;SDS011;42331;53.578;9.760;2023-03-01T07:07:02;22.87;;;8.47;;
56427;SDS011;42331;53.578;9.760;2023-03-01T07:09:33;21.33;;;8.97;;
56427;SDS011;42331;53.578;9.760;2023-03-01T07:12:04;20.73;;;9.27;;
56427;SDS011;42331;53.578;9.760;2023-03-01T07:14:35;17.97;;;8.30;;
56427;SDS011;42331;53.578;9.760;2023-03-01T07:17:05;15.95;;;7.68;;
56427;SDS011;42331;53.578;9.760;2023-03-01T07:19:36;12.13;;;5.63;;
56427;SDS011;42331;53.578;9.760;2023-03-01T07:22:07;17.63;;;7.40;;
56427;SDS011;42331;53.578;9.760;2023-03-01T07:24:40;11.68;;;5.57;;
56427;SDS011;42331;53.578;9.760;2023-03-01T07:27:11;11.38;;;5.35;;
56427;SDS011;42331;53.578;9.760;2023-03-01T07:29:42;12.90;;;5.40;;
56427;SDS011;42331;53.578;9.760;2023-03-01T07:32:13;9.57;;;5.00;;
56427;SDS011;42331;53.578;9.760;2023-03-01T07:34:43;12.77;;;5.17;;
56427;SDS011;42331;53.578;9.760;2023-03-01T07:37:14;8.33;;;4.73;;
56427;SDS011;42331;53.578;9.760;2023-03-01T07:39:45;9.90;;;5.03;;
56427;SDS011;42331;53.578;9.760;2023-03-01T07:42:16;8.67;;;4.97;;
56427;SDS011;42331;53.578;9.760;2023-03-01T07:44:47;13.30;;;4.95;;
56427;SDS011;42331;53.578;9.760;2023-03-01T07:47:17;8.80;;;5.85;;
56427;SDS011;42331;53.578;9.760;2023-03-01T07:49:48;8.67;;;5.53;;
56427;SDS011;42331;53.578;9.760;2023-03-01T07:52:19;11.63;;;6.03;;
56427;SDS011;42331;53.578;9.760;2023-03-01T07:54:50;12.20;;;6.07;;
56427;SDS011;42331;53.578;9.760;2023-03-01T07:57:20;8.97;;;5.43;;
56427;SDS011;42331;53.578;9.760;2023-03-01T07:59:51;11.45;;;5.97;;
56427;SDS011;42331;53.578;9.760;2023-03-01T08:02:22;9.47;;;5.57;;
56427;SDS011;42331;53.578;9.760;2023-03-01T08:04:53;14.47;;;7.30;;
56427;SDS011;42331;53.578;9.760;2023-03-01T08:07:23;13.68;;;7.47;;
56427;SDS011;42331;53.578;9.760;2023-03-01T08:09:54;17.13;;;8.07;;
56427;SDS011;42331;53.578;9.760;2023-03-01T08:12:25;14.68;;;8.95;;
56427;SDS011;42331;53.578;9.760;2023-03-01T08:14:58;15.10;;;9.57;;
56427;SDS011;42331;53.578;9.760;2023-03-01T08:17:29;16.27;;;9.80;;
56427;SDS011;42331;53.578;9.760;2023-03-01T08:19:59;17.40;;;10.75;;
56427;SDS011;42331;53.578;9.760;2023-03-01T08:22:30;17.80;;;11.37;;
56427;SDS011;42331;53.578;9.760;2023-03-01T08:25:01;13.50;;;9.23;;
56427;SDS011;42331;53.578;9.760;2023-03-01T08:27:32;17.58;;;10.32;;
56427;SDS011;42331;53.578;9.760;2023-03-01T08:30:03;15.98;;;10.23;;
56427;SDS011;42331;53.578;9.760;2023-03-01T08:32:35;14.07;;;7.97;;
56427;SDS011;42331;53.578;9.760;2023-03-01T08:35:08;16.92;;;9.68;;
56427;SDS011;42331;53.578;9.760;2023-03-01T08:37:38;14.32;;;9.20;;
56427;SDS011;42331;53.578;9.760;2023-03-01T08:40:09;15.77;;;10.60;;
56427;SDS011;42331;53.578;9.760;2023-03-01T08:42:41;14.68;;;9.50;;
56427;SDS011;42331;53.578;9.760;2023-03-01T08:45:18;17.77;;;10.68;;
56427;SDS011;42331;53.578;9.760;2023-03-01T08:47:51;14.80;;;9.18;;
56427;SDS011;42331;53.578;9.760;2023-03-01T08:50:23;17.83;;;9.88;;
56427;SDS011;42331;53.578;9.760;2023-03-01T08:52:54;17.42;;;9.73;;
56427;SDS011;42331;53.578;9.760;2023-03-01T08:55:25;16.13;;;9.83;;
56427;SDS011;42331;53.578;9.760;2023-03-01T08:57:56;17.30;;;10.60;;
56427;SDS011;42331;53.578;9.760;2023-03-01T09:00:28;14.55;;;9.45;;
56427;SDS011;42331;53.578;9.760;2023-03-01T09:02:59;17.17;;;9.32;;
56427;SDS011;42331;53.578;9.760;2023-03-01T09:05:31;15.57;;;9.55;;
56427;SDS011;42331;53.578;9.760;2023-03-01T09:08:03;15.98;;;9.95;;
56427;SDS011;42331;53.578;9.760;2023-03-01T09:10:36;15.15;;;10.07;;
56427;SDS011;42331;53.578;9.760;2023-03-01T09:13:08;15.75;;;9.85;;
56427;SDS011;42331;53.578;9.760;2023-03-01T09:15:39;17.53;;;10.03;;
56427;SDS011;42331;53.578;9.760;2023-03-01T09:18:13;16.33;;;9.98;;
56427;SDS011;42331;53.578;9.760;2023-03-01T09:20:43;15.18;;;10.45;;
56427;SDS011;42331;53.578;9.760;2023-03-01T09:23:14;18.20;;;9.87;;
56427;SDS011;42331;53.578;9.760;2023-03-01T09:25:45;14.27;;;9.75;;
56427;SDS011;42331;53.578;9.760;2023-03-01T09:28:15;14.32;;;9.00;;
56427;SDS011;42331;53.578;9.760;2023-03-01T09:30:46;13.02;;;9.05;;
56427;SDS011;42331;53.578;9.760;2023-03-01T09:33:17;17.83;;;9.20;;
56427;SDS011;42331;53.578;9.760;2023-03-01T09:35:48;13.18;;;8.82;;
56427;SDS011;42331;53.578;9.760;2023-03-01T09:38:18;9.23;;;6.27;;
56427;SDS011;42331;53.578;9.760;2023-03-01T09:40:49;14.45;;;8.73;;
56427;SDS011;42331;53.578;9.760;2023-03-01T09:43:25;15.25;;;8.95;;
56427;SDS011;42331;53.578;9.760;2023-03-01T09:46:03;16.77;;;9.02;;
56427;SDS011;42331;53.578;9.760;2023-03-01T09:48:41;15.82;;;8.98;;
56427;SDS011;42331;53.578;9.760;2023-03-01T09:51:21;12.25;;;7.70;;
56427;SDS011;42331;53.578;9.760;2023-03-01T09:53:57;13.33;;;8.03;;
56427;SDS011;42331;53.578;9.760;2023-03-01T10:02:32;10.90;;;7.20;;
56427;SDS011;42331;53.578;9.760;2023-03-01T10:04:47;9.63;;;6.60;;
56427;SDS011;42331;53.578;9.760;2023-03-01T10:07:36;10.73;;;6.75;;
56427;SDS011;42331;53.578;9.760;2023-03-01T10:10:34;12.60;;;6.63;;
56427;SDS011;42331;53.578;9.760;2023-03-01T10:13:13;12.02;;;7.43;;
56427;SDS011;42331;53.578;9.760;2023-03-01T10:15:55;11.27;;;7.25;;
56427;SDS011;42331;53.578;9.760;2023-03-01T10:18:42;11.27;;;6.90;;
56427;SDS011;42331;53.578;9.760;2023-03-01T10:21:18;11.23;;;6.80;;
56427;SDS011;42331;53.578;9.760;2023-03-01T10:23:50;10.40;;;7.00;;
56427;SDS011;42331;53.578;9.760;2023-03-01T10:26:30;10.75;;;7.30;;
56427;SDS011;42331;53.578;9.760;2023-03-01T10:29:09;10.63;;;6.60;;
56427;SDS011;42331;53.578;9.760;2023-03-01T10:31:42;12.18;;;6.30;;
56427;SDS011;42331;53.578;9.760;2023-03-01T10:34:20;8.95;;;5.85;;
56427;SDS011;42331;53.578;9.760;2023-03-01T10:36:55;8.80;;;5.43;;
56427;SDS011;42331;53.578;9.760;2023-03-01T10:39:27;11.00;;;5.88;;
56427;SDS011;42331;53.578;9.760;2023-03-01T10:42:00;9.25;;;6.05;;
56427;SDS011;42331;53.578;9.760;2023-03-01T10:44:46;9.68;;;5.40;;
56427;SDS011;42331;53.578;9.760;2023-03-01T10:47:22;8.75;;;5.20;;
56427;SDS011;42331;53.578;9.760;2023-03-01T10:50:02;7.80;;;5.00;;
56427;SDS011;42331;53.578;9.760;2023-03-01T10:52:36;8.13;;;5.20;;
56427;SDS011;42331;53.578;9.760;2023-03-01T10:55:23;8.68;;;5.25;;
56427;SDS011;42331;53.578;9.760;2023-03-01T10:58:07;7.15;;;4.85;;
56427;SDS011;42331;53.578;9.760;2023-03-01T11:08:45;8.63;;;5.00;;
56427;SDS011;42331;53.578;9.760;2023-03-01T11:14:03;11.43;;;5.75;;
56427;SDS011;42331;53.578;9.760;2023-03-01T11:16:45;10.48;;;5.85;;
56427;SDS011;42331;53.578;9.760;2023-03-01T11:19:20;10.43;;;5.93;;
56427;SDS011;42331;53.578;9.760;2023-03-01T11:24:34;9.15;;;5.43;;
56427;SDS011;42331;53.578;9.760;2023-03-01T11:27:16;10.52;;;6.10;;
56427;SDS011;42331;53.578;9.760;2023-03-01T11:30:04;11.55;;;6.10;;
56427;SDS011;42331;53.578;9.760;2023-03-01T11:35:59;13.23;;;6.65;;
56427;SDS011;42331;53.578;9.760;2023-03-01T11:38:54;12.98;;;7.05;;
56427;SDS011;42331;53.578;9.760;2023-03-01T11:41:28;13.35;;;7.05;;
56427;SDS011;42331;53.578;9.760;2023-03-01T11:44:10;15.60;;;8.90;;
56427;SDS011;42331;53.578;9.760;2023-03-01T11:58:53;16.17;;;7.22;;
56427;SDS011;42331;53.578;9.760;2023-03-01T12:22:32;12.73;;;6.78;;
56427;SDS011;42331;53.578;9.760;2023-03-01T12:25:20;13.00;;;6.97;;
56427;SDS011;42331;53.578;9.760;2023-03-01T12:30:42;13.23;;;7.30;;
56427;SDS011;42331;53.578;9.760;2023-03-01T12:33:30;12.95;;;7.13;;
56427;SDS011;42331;53.578;9.760;2023-03-01T12:36:12;13.68;;;7.22;;
56427;SDS011;42331;53.578;9.760;2023-03-01T12:50:59;18.50;;;10.05;;
56427;SDS011;42331;53.578;9.760;2023-03-01T12:53:40;16.33;;;9.52;;
56427;SDS011;42331;53.578;9.760;2023-03-01T12:56:25;17.88;;;10.70;;
56427;SDS011;42331;53.578;9.760;2023-03-01T12:59:09;30.10;;;14.60;;
56427;SDS011;42331;53.578;9.760;2023-03-01T13:01:57;26.48;;;14.27;;
56427;SDS011;42331;53.578;9.760;2023-03-01T13:07:41;19.77;;;11.50;;
56427;SDS011;42331;53.578;9.760;2023-03-01T13:10:29;17.67;;;10.63;;
56427;SDS011;42331;53.578;9.760;2023-03-01T13:13:24;16.30;;;10.70;;
56427;SDS011;42331;53.578;9.760;2023-03-01T13:16:22;25.40;;;13.55;;
56427;SDS011;42331;53.578;9.760;2023-03-01T13:19:22;22.70;;;12.63;;
56427;SDS011;42331;53.578;9.760;2023-03-01T13:22:02;23.45;;;13.25;;
56427;SDS011;42331;53.578;9.760;2023-03-01T13:25:28;18.55;;;11.50;;
56427;SDS011;42331;53.578;9.760;2023-03-01T13:31:05;30.10;;;17.35;;
56427;SDS011;42331;53.578;9.760;2023-03-01T13:39:04;27.80;;;15.00;;
56427;SDS011;42331;53.578;9.760;2023-03-01T13:41:56;26.35;;;14.30;;
56427;SDS011;42331;53.578;9.760;2023-03-01T13:44:33;32.40;;;16.38;;
56427;SDS011;42331;53.578;9.760;2023-03-01T13:47:16;28.10;;;14.68;;
56427;SDS011;42331;53.578;9.760;2023-03-01T13:49:48;25.27;;;13.25;;
56427;SDS011;42331;53.578;9.760;2023-03-01T13:52:43;22.80;;;12.50;;
56427;SDS011;42331;53.578;9.760;2023-03-01T13:55:41;25.85;;;13.38;;
56427;SDS011;42331;53.578;9.760;2023-03-01T13:58:22;29.70;;;15.40;;
56427;SDS011;42331;53.578;9.760;2023-03-01T14:01:07;26.95;;;14.05;;
56427;SDS011;42331;53.578;9.760;2023-03-01T14:03:50;24.70;;;13.40;;
56427;SDS011;42331;53.578;9.760;2023-03-01T14:06:27;23.35;;;13.00;;
56427;SDS011;42331;53.578;9.760;2023-03-01T14:09:16;25.05;;;14.05;;
56427;SDS011;42331;53.578;9.760;2023-03-01T14:17:37;18.75;;;11.73;;
56427;SDS011;42331;53.578;9.760;2023-03-01T14:22:54;22.45;;;11.70;;
56427;SDS011;42331;53.578;9.760;2023-03-01T14:25:31;23.33;;;13.25;;
56427;SDS011;42331;53.578;9.760;2023-03-01T14:28:24;21.95;;;11.75;;
56427;SDS011;42331;53.578;9.760;2023-03-01T14:31:02;21.67;;;11.45;;
56427;SDS011;42331;53.578;9.760;2023-03-01T14:33:55;18.25;;;11.20;;
56427;SDS011;42331;53.578;9.760;2023-03-01T14:36:30;22.42;;;11.35;;
56427;SDS011;42331;53.578;9.760;2023-03-01T14:39:16;18.03;;;9.77;;
56427;SDS011;42331;53.578;9.760;2023-03-01T14:41:59;14.65;;;8.70;;
56427;SDS011;42331;53.578;9.760;2023-03-01T14:44:33;17.00;;;9.57;;
56427;SDS011;42331;53.578;9.760;2023-03-01T14:47:12;15.15;;;8.35;;
56427;SDS011;42331;53.578;9.760;2023-03-01T14:52:37;14.70;;;8.15;;
56427;SDS011;42331;53.578;9.760;2023-03-01T14:55:17;14.38;;;7.05;;
56427;SDS011;42331;53.578;9.760;2023-03-01T14:57:50;15.70;;;9.00;;
56427;SDS011;42331;53.578;9.760;2023-03-01T15:00:34;14.55;;;8.05;;
56427;SDS011;42331;53.578;9.760;2023-03-01T15:03:07;13.30;;;7.88;;
56427;SDS011;42331;53.578;9.760;2023-03-01T15:05:46;13.45;;;7.78;;
56427;SDS011;42331;53.578;9.760;2023-03-01T15:08:19;15.47;;;8.80;;
56427;SDS011;42331;53.578;9.760;2023-03-01T15:10:57;13.15;;;7.60;;
56427;SDS011;42331;53.578;9.760;2023-03-01T15:13:43;16.13;;;8.13;;
56427;SDS011;42331;53.578;9.760;2023-03-01T15:16:34;14.68;;;7.88;;
56427;SDS011;42331;53.578;9.760;2023-03-01T15:19:15;13.18;;;7.32;;
56427;SDS011;42331;53.578;9.760;2023-03-01T15:21:49;13.98;;;7.20;;
56427;SDS011;42331;53.578;9.760;2023-03-01T15:24:22;11.02;;;5.43;;
56427;SDS011;42331;53.578;9.760;2023-03-01T15:26:58;11.38;;;6.45;;
56427;SDS011;42331;53.578;9.760;2023-03-01T15:29:36;13.50;;;6.70;;
56427;SDS011;42331;53.578;9.760;2023-03-01T15:32:32;18.42;;;9.15;;
56427;SDS011;42331;53.578;9.760;2023-03-01T15:38:28;13.32;;;7.50;;
56427;SDS011;42331;53.578;9.760;2023-03-01T15:41:31;16.38;;;9.93;;
56427;SDS011;42331;53.578;9.760;2023-03-01T15:44:15;15.85;;;9.50;;
56427;SDS011;42331;53.578;9.760;2023-03-01T15:46:47;14.45;;;7.65;;
56427;SDS011;42331;53.578;9.760;2023-03-01T15:52:12;15.00;;;8.70;;
56427;SDS011;42331;53.578;9.760;2023-03-01T15:54:49;17.00;;;8.43;;
56427;SDS011;42331;53.578;9.760;2023-03-01T15:57:20;15.90;;;9.38;;
56427;SDS011;42331;53.578;9.760;2023-03-01T15:59:50;17.33;;;10.18;;
56427;SDS011;42331;53.578;9.760;2023-03-01T16:02:22;51.90;;;30.92;;
56427;SDS011;42331;53.578;9.760;2023-03-01T16:04:54;17.58;;;9.93;;
56427;SDS011;42331;53.578;9.760;2023-03-01T16:09:57;12.50;;;7.68;;
56427;SDS011;42331;53.578;9.760;2023-03-01T16:12:28;19.98;;;10.60;;
56427;SDS011;42331;53.578;9.760;2023-03-01T16:14:59;22.23;;;11.55;;
56427;SDS011;42331;53.578;9.760;2023-03-01T16:17:30;20.38;;;12.13;;
56427;SDS011;42331;53.578;9.760;2023-03-01T16:20:00;24.98;;;12.98;;
56427;SDS011;42331;53.578;9.760;2023-03-01T16:22:31;23.10;;;12.98;;
56427;SDS011;42331;53.578;9.760;2023-03-01T16:25:02;23.33;;;12.53;;
56427;SDS011;42331;53.578;9.760;2023-03-01T16:27:33;26.67;;;12.60;;
56427;SDS011;42331;53.578;9.760;2023-03-01T16:30:05;19.25;;;10.73;;
56427;SDS011;42331;53.578;9.760;2023-03-01T16:32:39;20.77;;;11.75;;
56427;SDS011;42331;53.578;9.760;2023-03-01T16:35:12;20.52;;;11.65;;
56427;SDS011;42331;53.578;9.760;2023-03-01T16:37:43;21.50;;;11.40;;
56427;SDS011;42331;53.578;9.760;2023-03-01T16:40:21;20.15;;;11.60;;
56427;SDS011;42331;53.578;9.760;2023-03-01T16:42:55;20.63;;;10.48;;
56427;SDS011;42331;53.578;9.760;2023-03-01T16:45:32;19.05;;;9.73;;
56427;SDS011;42331;53.578;9.760;2023-03-01T16:48:05;20.45;;;10.45;;
56427;SDS011;42331;53.578;9.760;2023-03-01T16:53:08;17.20;;;9.63;;
56427;SDS011;42331;53.578;9.760;2023-03-01T16:55:38;11.23;;;6.75;;
56427;SDS011;42331;53.578;9.760;2023-03-01T16:58:15;22.48;;;12.73;;
56427;SDS011;42331;53.578;9.760;2023-03-01T17:00:46;26.75;;;14.93;;
56427;SDS011;42331;53.578;9.760;2023-03-01T17:03:17;18.40;;;9.60;;
56427;SDS011;42331;53.578;9.760;2023-03-01T17:05:48;18.05;;;9.73;;
56427;SDS011;42331;53.578;9.760;2023-03-01T17:08:19;18.45;;;9.02;;
56427;SDS011;42331;53.578;9.760;2023-03-01T17:10:50;14.68;;;9.77;;
56427;SDS011;42331;53.578;9.760;2023-03-01T17:13:20;10.90;;;6.88;;
56427;SDS011;42331;53.578;9.760;2023-03-01T17:15:54;14.93;;;8.13;;
56427;SDS011;42331;53.578;9.760;2023-03-01T17:18:24;15.77;;;8.90;;
56427;SDS011;42331;53.578;9.760;2023-03-01T17:26:08;13.30;;;7.80;;